sensor_id;sensor_type;location;lat;lon;timestamp;P1;durP1;ratioP1;P2;durP2;ratioP2
16813;SDS011;8524;57.650;11.926;2023-05-10T00:01:50;2.73;;;2.50;;
16813;SDS011;8524;57.650;11.926;2023-05-10T00:04:18;3.13;;;2.70;;
16813;SDS011;8524;57.650;11.926;2023-05-10T00:06:46;4.03;;;2.80;;
16813;SDS011;8524;57.650;11.926;2023-05-10T00:09:13;2.90;;;2.60;;
16813;SDS011;8524;57.650;11.926;2023-05-10T00:11:40;3.53;;;2.90;;
16813;SDS011;8524;57.650;11.926;2023-05-10T00:14:07;4.77;;;2.90;;
16813;SDS011;8524;57.650;11.926;2023-05-10T00:16:34;5.77;;;3.17;;
16813;SDS011;8524;57.650;11.926;2023-05-10T00:19:01;3.80;;;2.83;;
16813;SDS011;8524;57.650;11.926;2023-05-10T00:21:29;3.10;;;2.37;;
16813;SDS011;8524;57.650;11.926;2023-05-10T00:23:58;4.17;;;3.07;;
16813;SDS011;8524;57.650;11.926;2023-05-10T00:26:25;4.63;;;2.87;;
16813;SDS011;8524;57.650;11.926;2023-05-10T00:28:52;3.13;;;2.80;;
16813;SDS011;8524;57.650;11.926;2023-05-10T00:31:19;3.03;;;2.73;;
16813;SDS011;8524;57.650;11.926;2023-05-10T00:33:46;4.50;;;2.90;;
16813;SDS011;8524;57.650;11.926;2023-05-10T00:36:13;4.37;;;3.00;;
16813;SDS011;8524;57.650;11.926;2023-05-10T00:38:42;3.33;;;2.50;;
16813;SDS011;8524;57.650;11.926;2023-05-10T00:41:09;3.20;;;2.80;;
16813;SDS011;8524;57.650;11.926;2023-05-10T00:43:36;4.57;;;3.10;;
16813;SDS011;8524;57.650;11.926;2023-05-10T00:46:03;3.27;;;2.97;;
16813;SDS011;8524;57.650;11.926;2023-05-10T00:48:30;4.33;;;3.00;;
16813;SDS011;8524;57.650;11.926;2023-05-10T00:50:58;3.93;;;2.67;;
16813;SDS011;8524;57.650;11.926;2023-05-10T00:53:25;3.80;;;2.87;;
16813;SDS011;8524;57.650;11.926;2023-05-10T00:55:54;4.00;;;2.77;;
16813;SDS011;8524;57.650;11.926;2023-05-10T00:58:21;3.73;;;3.03;;
16813;SDS011;8524;57.650;11.926;2023-05-10T01:00:49;3.10;;;2.80;;
16813;SDS011;8524;57.650;11.926;2023-05-10T01:03:17;2.93;;;2.63;;
16813;SDS011;8524;57.650;11.926;2023-05-10T01:05:44;2.87;;;2.57;;
16813;SDS011;8524;57.650;11.926;2023-05-10T01:08:11;3.73;;;2.57;;
16813;SDS011;8524;57.650;11.926;2023-05-10T01:10:38;3.70;;;2.47;;
16813;SDS011;8524;57.650;11.926;2023-05-10T01:13:07;5.77;;;2.90;;
16813;SDS011;8524;57.650;11.926;2023-05-10T01:15:34;3.97;;;2.63;;
16813;SDS011;8524;57.650;11.926;2023-05-10T01:18:01;3.07;;;2.77;;
16813;SDS011;8524;57.650;11.926;2023-05-10T01:20:39;3.20;;;2.50;;
16813;SDS011;8524;57.650;11.926;2023-05-10T01:26:17;4.20;;;2.77;;
16813;SDS011;8524;57.650;11.926;2023-05-10T01:32:09;4.87;;;2.77;;
16813;SDS011;8524;57.650;11.926;2023-05-10T01:34:51;3.83;;;2.70;;
16813;SDS011;8524;57.650;11.926;2023-05-10T01:37:28;4.60;;;2.90;;
16813;SDS011;8524;57.650;11.926;2023-05-10T01:40:00;3.67;;;2.60;;
16813;SDS011;8524;57.650;11.926;2023-05-10T01:42:36;5.70;;;3.23;;
16813;SDS011;8524;57.650;11.926;2023-05-10T01:45:11;4.57;;;2.97;;
16813;SDS011;8524;57.650;11.926;2023-05-10T01:47:46;3.00;;;2.57;;
16813;SDS011;8524;57.650;11.926;2023-05-10T01:50:17;4.00;;;2.73;;
16813;SDS011;8524;57.650;11.926;2023-05-10T01:52:49;4.43;;;3.00;;
16813;SDS011;8524;57.650;11.926;2023-05-10T01:55:20;3.97;;;2.90;;
16813;SDS011;8524;57.650;11.926;2023-05-10T01:57:51;3.73;;;2.97;;
16813;SDS011;8524;57.650;11.926;2023-05-10T02:00:23;2.90;;;2.50;;
16813;SDS011;8524;57.650;11.926;2023-05-10T02:02:53;3.90;;;2.80;;
16813;SDS011;8524;57.650;11.926;2023-05-10T02:05:21;8.23;;;2.97;;
16813;SDS011;8524;57.650;11.926;2023-05-10T02:07:50;3.87;;;2.70;;
16813;SDS011;8524;57.650;11.926;2023-05-10T02:10:18;5.67;;;3.20;;
16813;SDS011;8524;57.650;11.926;2023-05-10T02:12:47;5.00;;;2.73;;
16813;SDS011;8524;57.650;11.926;2023-05-10T02:15:17;4.27;;;3.03;;
16813;SDS011;8524;57.650;11.926;2023-05-10T02:17:46;4.40;;;2.80;;
16813;SDS011;8524;57.650;11.926;2023-05-10T02:20:14;3.40;;;3.10;;
16813;SDS011;8524;57.650;11.926;2023-05-10T02:22:44;3.07;;;2.77;;
16813;SDS011;8524;57.650;11.926;2023-05-10T02:25:13;3.07;;;2.73;;
16813;SDS011;8524;57.650;11.926;2023-05-10T02:27:41;4.17;;;2.70;;
16813;SDS011;8524;57.650;11.926;2023-05-10T02:30:10;5.17;;;2.90;;
16813;SDS011;8524;57.650;11.926;2023-05-10T02:32:39;4.20;;;2.70;;
16813;SDS011;8524;57.650;11.926;2023-05-10T02:35:07;3.77;;;2.60;;
16813;SDS011;8524;57.650;11.926;2023-05-10T02:37:37;4.27;;;2.80;;
16813;SDS011;8524;57.650;11.926;2023-05-10T02:40:06;5.80;;;2.73;;
16813;SDS011;8524;57.650;11.926;2023-05-10T02:42:35;3.90;;;2.90;;
16813;SDS011;8524;57.650;11.926;2023-05-10T02:45:05;4.37;;;3.10;;
16813;SDS011;8524;57.650;11.926;2023-05-10T02:47:37;4.63;;;2.57;;
16813;SDS011;8524;57.650;11.926;2023-05-10T02:50:04;4.57;;;3.00;;
16813;SDS011;8524;57.650;11.926;2023-05-10T02:52:36;3.17;;;2.77;;
16813;SDS011;8524;57.650;11.926;2023-05-10T02:55:09;5.47;;;3.57;;
16813;SDS011;8524;57.650;11.926;2023-05-10T02:57:41;6.23;;;3.60;;
16813;SDS011;8524;57.650;11.926;2023-05-10T03:00:12;4.83;;;3.23;;
16813;SDS011;8524;57.650;11.926;2023-05-10T03:02:40;4.70;;;3.30;;
16813;SDS011;8524;57.650;11.926;2023-05-10T03:05:08;5.70;;;3.27;;
16813;SDS011;8524;57.650;11.926;2023-05-10T03:07:35;4.23;;;3.40;;
16813;SDS011;8524;57.650;11.926;2023-05-10T03:10:04;5.27;;;3.17;;
16813;SDS011;8524;57.650;11.926;2023-05-10T03:12:37;3.23;;;2.93;;
16813;SDS011;8524;57.650;11.926;2023-05-10T03:15:20;3.57;;;2.97;;
16813;SDS011;8524;57.650;11.926;2023-05-10T03:17:55;6.50;;;3.17;;
16813;SDS011;8524;57.650;11.926;2023-05-10T03:20:29;4.40;;;2.87;;
16813;SDS011;8524;57.650;11.926;2023-05-10T03:23:02;6.47;;;3.10;;
16813;SDS011;8524;57.650;11.926;2023-05-10T03:25:35;4.67;;;2.97;;
16813;SDS011;8524;57.650;11.926;2023-05-10T03:28:02;5.57;;;2.80;;
16813;SDS011;8524;57.650;11.926;2023-05-10T03:30:31;6.13;;;2.90;;
16813;SDS011;8524;57.650;11.926;2023-05-10T03:33:03;5.97;;;3.13;;
16813;SDS011;8524;57.650;11.926;2023-05-10T03:35:31;4.80;;;3.30;;
16813;SDS011;8524;57.650;11.926;2023-05-10T03:37:58;4.50;;;3.20;;
16813;SDS011;8524;57.650;11.926;2023-05-10T03:40:25;3.27;;;2.90;;
16813;SDS011;8524;57.650;11.926;2023-05-10T03:42:57;4.93;;;3.00;;
16813;SDS011;8524;57.650;11.926;2023-05-10T03:45:25;4.90;;;3.03;;
16813;SDS011;8524;57.650;11.926;2023-05-10T03:47:52;3.03;;;2.70;;
16813;SDS011;8524;57.650;11.926;2023-05-10T03:50:19;4.83;;;2.70;;
16813;SDS011;8524;57.650;11.926;2023-05-10T03:52:46;3.77;;;2.93;;
16813;SDS011;8524;57.650;11.926;2023-05-10T03:55:13;4.40;;;2.90;;
16813;SDS011;8524;57.650;11.926;2023-05-10T03:57:41;3.43;;;2.80;;
16813;SDS011;8524;57.650;11.926;2023-05-10T04:00:10;3.63;;;2.70;;
16813;SDS011;8524;57.650;11.926;2023-05-10T04:02:38;4.07;;;3.10;;
16813;SDS011;8524;57.650;11.926;2023-05-10T04:05:05;5.23;;;3.30;;
16813;SDS011;8524;57.650;11.926;2023-05-10T04:07:32;3.73;;;2.57;;
16813;SDS011;8524;57.650;11.926;2023-05-10T04:09:59;4.37;;;3.10;;
16813;SDS011;8524;57.650;11.926;2023-05-10T04:12:26;3.50;;;2.90;;
16813;SDS011;8524;57.650;11.926;2023-05-10T04:14:54;4.03;;;3.07;;
16813;SDS011;8524;57.650;11.926;2023-05-10T04:17:22;5.20;;;3.00;;
16813;SDS011;8524;57.650;11.926;2023-05-10T04:19:49;3.50;;;2.97;;
16813;SDS011;8524;57.650;11.926;2023-05-10T04:22:18;3.50;;;3.20;;
16813;SDS011;8524;57.650;11.926;2023-05-10T04:24:45;4.40;;;3.13;;
16813;SDS011;8524;57.650;11.926;2023-05-10T04:27:12;5.63;;;3.17;;
16813;SDS011;8524;57.650;11.926;2023-05-10T04:29:39;5.17;;;3.33;;
16813;SDS011;8524;57.650;11.926;2023-05-10T04:32:06;5.37;;;3.10;;
16813;SDS011;8524;57.650;11.926;2023-05-10T04:34:36;3.57;;;3.00;;
16813;SDS011;8524;57.650;11.926;2023-05-10T04:37:03;4.63;;;3.43;;
16813;SDS011;8524;57.650;11.926;2023-05-10T04:39:30;4.27;;;3.07;;
16813;SDS011;8524;57.650;11.926;2023-05-10T04:41:58;5.00;;;3.27;;
16813;SDS011;8524;57.650;11.926;2023-05-10T04:44:25;3.40;;;3.10;;
16813;SDS011;8524;57.650;11.926;2023-05-10T04:46:51;4.10;;;2.97;;
16813;SDS011;8524;57.650;11.926;2023-05-10T04:49:18;4.63;;;2.80;;
16813;SDS011;8524;57.650;11.926;2023-05-10T04:51:47;7.30;;;3.37;;
16813;SDS011;8524;57.650;11.926;2023-05-10T04:54:14;5.37;;;3.30;;
16813;SDS011;8524;57.650;11.926;2023-05-10T04:56:41;6.40;;;3.30;;
16813;SDS011;8524;57.650;11.926;2023-05-10T04:59:08;3.17;;;2.87;;
16813;SDS011;8524;57.650;11.926;2023-05-10T05:01:35;4.70;;;2.97;;
16813;SDS011;8524;57.650;11.926;2023-05-10T05:04:02;4.40;;;3.27;;
16813;SDS011;8524;57.650;11.926;2023-05-10T05:06:30;5.33;;;3.13;;
16813;SDS011;8524;57.650;11.926;2023-05-10T05:08:58;3.90;;;3.00;;
16813;SDS011;8524;57.650;11.926;2023-05-10T05:11:25;4.57;;;2.80;;
16813;SDS011;8524;57.650;11.926;2023-05-10T05:13:52;6.43;;;3.30;;
16813;SDS011;8524;57.650;11.926;2023-05-10T05:16:19;4.53;;;3.00;;
16813;SDS011;8524;57.650;11.926;2023-05-10T05:18:46;3.63;;;2.93;;
16813;SDS011;8524;57.650;11.926;2023-05-10T05:21:14;3.27;;;2.97;;
16813;SDS011;8524;57.650;11.926;2023-05-10T05:23:41;5.83;;;2.90;;
16813;SDS011;8524;57.650;11.926;2023-05-10T05:26:10;4.63;;;3.03;;
16813;SDS011;8524;57.650;11.926;2023-05-10T05:28:37;3.77;;;3.23;;
16813;SDS011;8524;57.650;11.926;2023-05-10T05:31:04;4.30;;;2.90;;
16813;SDS011;8524;57.650;11.926;2023-05-10T05:33:32;3.97;;;2.77;;
16813;SDS011;8524;57.650;11.926;2023-05-10T05:36:00;3.47;;;2.70;;
16813;SDS011;8524;57.650;11.926;2023-05-10T05:38:27;4.17;;;3.00;;
16813;SDS011;8524;57.650;11.926;2023-05-10T05:40:54;4.13;;;3.03;;
16813;SDS011;8524;57.650;11.926;2023-05-10T05:43:22;4.07;;;2.90;;
16813;SDS011;8524;57.650;11.926;2023-05-10T05:45:49;3.27;;;2.90;;
16813;SDS011;8524;57.650;11.926;2023-05-10T05:48:19;4.77;;;3.27;;
16813;SDS011;8524;57.650;11.926;2023-05-10T05:50:46;3.97;;;2.87;;
16813;SDS011;8524;57.650;11.926;2023-05-10T05:53:13;4.43;;;2.93;;
16813;SDS011;8524;57.650;11.926;2023-05-10T05:55:45;4.60;;;3.23;;
16813;SDS011;8524;57.650;11.926;2023-05-10T05:58:18;5.27;;;2.90;;
16813;SDS011;8524;57.650;11.926;2023-05-10T06:00:46;3.60;;;2.70;;
16813;SDS011;8524;57.650;11.926;2023-05-10T06:03:13;3.77;;;3.10;;
16813;SDS011;8524;57.650;11.926;2023-05-10T06:05:40;3.10;;;2.70;;
16813;SDS011;8524;57.650;11.926;2023-05-10T06:08:07;4.23;;;3.23;;
16813;SDS011;8524;57.650;11.926;2023-05-10T06:10:34;6.37;;;3.37;;
16813;SDS011;8524;57.650;11.926;2023-05-10T06:13:02;3.20;;;2.90;;
16813;SDS011;8524;57.650;11.926;2023-05-10T06:15:29;5.80;;;3.10;;
16813;SDS011;8524;57.650;11.926;2023-05-10T06:17:59;5.67;;;3.23;;
16813;SDS011;8524;57.650;11.926;2023-05-10T06:20:26;3.33;;;2.70;;
16813;SDS011;8524;57.650;11.926;2023-05-10T06:22:53;5.33;;;3.20;;
16813;SDS011;8524;57.650;11.926;2023-05-10T06:25:20;4.00;;;3.20;;
16813;SDS011;8524;57.650;11.926;2023-05-10T06:27:47;4.40;;;3.00;;
16813;SDS011;8524;57.650;11.926;2023-05-10T06:30:14;5.43;;;3.00;;
16813;SDS011;8524;57.650;11.926;2023-05-10T06:32:41;5.77;;;3.20;;
16813;SDS011;8524;57.650;11.926;2023-05-10T06:35:11;3.83;;;3.10;;
16813;SDS011;8524;57.650;11.926;2023-05-10T06:37:38;3.97;;;3.13;;
16813;SDS011;8524;57.650;11.926;2023-05-10T06:40:06;4.47;;;3.00;;
16813;SDS011;8524;57.650;11.926;2023-05-10T06:42:34;4.00;;;2.97;;
16813;SDS011;8524;57.650;11.926;2023-05-10T06:45:01;4.57;;;2.87;;
16813;SDS011;8524;57.650;11.926;2023-05-10T06:47:29;4.00;;;3.27;;
16813;SDS011;8524;57.650;11.926;2023-05-10T06:49:55;3.90;;;2.67;;
16813;SDS011;8524;57.650;11.926;2023-05-10T06:52:24;6.73;;;3.50;;
16813;SDS011;8524;57.650;11.926;2023-05-10T06:54:51;3.70;;;2.90;;
16813;SDS011;8524;57.650;11.926;2023-05-10T06:57:18;4.50;;;3.20;;
16813;SDS011;8524;57.650;11.926;2023-05-10T06:59:45;3.43;;;3.13;;
16813;SDS011;8524;57.650;11.926;2023-05-10T07:02:12;5.20;;;3.03;;
16813;SDS011;8524;57.650;11.926;2023-05-10T07:04:40;4.03;;;3.07;;
16813;SDS011;8524;57.650;11.926;2023-05-10T07:07:07;5.93;;;2.80;;
16813;SDS011;8524;57.650;11.926;2023-05-10T07:09:36;4.07;;;3.00;;
16813;SDS011;8524;57.650;11.926;2023-05-10T07:12:03;4.73;;;3.10;;
16813;SDS011;8524;57.650;11.926;2023-05-10T07:14:30;4.83;;;3.20;;
16813;SDS011;8524;57.650;11.926;2023-05-10T07:16:58;5.87;;;3.40;;
16813;SDS011;8524;57.650;11.926;2023-05-10T07:19:25;3.50;;;3.20;;
16813;SDS011;8524;57.650;11.926;2023-05-10T07:21:52;3.40;;;3.03;;
16813;SDS011;8524;57.650;11.926;2023-05-10T07:24:19;4.50;;;2.97;;
16813;SDS011;8524;57.650;11.926;2023-05-10T07:26:48;3.83;;;2.90;;
16813;SDS011;8524;57.650;11.926;2023-05-10T07:29:15;4.73;;;3.03;;
16813;SDS011;8524;57.650;11.926;2023-05-10T07:31:42;3.30;;;3.00;;
16813;SDS011;8524;57.650;11.926;2023-05-10T07:34:09;5.67;;;3.20;;
16813;SDS011;8524;57.650;11.926;2023-05-10T07:36:36;3.17;;;2.90;;
16813;SDS011;8524;57.650;11.926;2023-05-10T07:39:03;5.43;;;3.20;;
16813;SDS011;8524;57.650;11.926;2023-05-10T07:41:30;4.30;;;3.20;;
16813;SDS011;8524;57.650;11.926;2023-05-10T07:43:59;5.00;;;2.97;;
16813;SDS011;8524;57.650;11.926;2023-05-10T07:46:26;4.30;;;3.00;;
16813;SDS011;8524;57.650;11.926;2023-05-10T07:48:53;4.13;;;3.00;;
16813;SDS011;8524;57.650;11.926;2023-05-10T07:51:20;5.70;;;2.73;;
16813;SDS011;8524;57.650;11.926;2023-05-10T07:53:47;3.30;;;3.00;;
16813;SDS011;8524;57.650;11.926;2023-05-10T07:56:21;3.43;;;2.70;;
16813;SDS011;8524;57.650;11.926;2023-05-10T07:58:50;4.73;;;3.03;;
16813;SDS011;8524;57.650;11.926;2023-05-10T08:01:19;3.93;;;2.93;;
16813;SDS011;8524;57.650;11.926;2023-05-10T08:03:46;3.17;;;2.57;;
16813;SDS011;8524;57.650;11.926;2023-05-10T08:06:13;3.73;;;2.90;;
16813;SDS011;8524;57.650;11.926;2023-05-10T08:08:41;3.07;;;2.77;;
16813;SDS011;8524;57.650;11.926;2023-05-10T08:11:08;2.60;;;2.40;;
16813;SDS011;8524;57.650;11.926;2023-05-10T08:13:35;5.23;;;3.27;;
16813;SDS011;8524;57.650;11.926;2023-05-10T08:16:02;3.87;;;2.67;;
16813;SDS011;8524;57.650;11.926;2023-05-10T08:18:30;3.30;;;2.83;;
16813;SDS011;8524;57.650;11.926;2023-05-10T08:20:57;5.50;;;3.13;;
16813;SDS011;8524;57.650;11.926;2023-05-10T08:23:24;6.40;;;3.00;;
16813;SDS011;8524;57.650;11.926;2023-05-10T08:25:51;3.97;;;3.10;;
16813;SDS011;8524;57.650;11.926;2023-05-10T08:28:18;4.07;;;3.33;;
16813;SDS011;8524;57.650;11.926;2023-05-10T08:30:45;4.20;;;3.00;;
16813;SDS011;8524;57.650;11.926;2023-05-10T08:33:12;7.20;;;3.17;;
16813;SDS011;8524;57.650;11.926;2023-05-10T08:35:41;5.60;;;3.40;;
16813;SDS011;8524;57.650;11.926;2023-05-10T08:38:08;4.38;;;2.97;;
16813;SDS011;8524;57.650;11.926;2023-05-10T08:40:35;6.63;;;2.80;;
16813;SDS011;8524;57.650;11.926;2023-05-10T08:43:04;3.13;;;2.93;;
16813;SDS011;8524;57.650;11.926;2023-05-10T08:45:32;4.32;;;3.03;;
16813;SDS011;8524;57.650;11.926;2023-05-10T08:48:02;3.47;;;3.10;;
16813;SDS011;8524;57.650;11.926;2023-05-10T08:50:34;2.87;;;2.67;;
16813;SDS011;8524;57.650;11.926;2023-05-10T08:53:05;3.20;;;2.90;;
16813;SDS011;8524;57.650;11.926;2023-05-10T08:55:35;3.50;;;2.80;;
16813;SDS011;8524;57.650;11.926;2023-05-10T08:58:03;5.93;;;3.17;;
16813;SDS011;8524;57.650;11.926;2023-05-10T09:00:30;4.20;;;3.03;;
16813;SDS011;8524;57.650;11.926;2023-05-10T09:02:58;6.10;;;3.03;;
16813;SDS011;8524;57.650;11.926;2023-05-10T09:05:26;3.03;;;2.60;;
16813;SDS011;8524;57.650;11.926;2023-05-10T09:07:53;3.93;;;2.70;;
16813;SDS011;8524;57.650;11.926;2023-05-10T09:10:22;3.80;;;3.00;;
16813;SDS011;8524;57.650;11.926;2023-05-10T09:12:52;4.07;;;3.00;;
16813;SDS011;8524;57.650;11.926;2023-05-10T09:15:22;3.73;;;3.00;;
16813;SDS011;8524;57.650;11.926;2023-05-10T09:17:49;4.30;;;3.10;;
16813;SDS011;8524;57.650;11.926;2023-05-10T09:20:16;3.03;;;2.73;;
16813;SDS011;8524;57.650;11.926;2023-05-10T09:22:43;3.78;;;2.97;;
16813;SDS011;8524;57.650;11.926;2023-05-10T09:25:11;3.47;;;3.00;;
16813;SDS011;8524;57.650;11.926;2023-05-10T09:27:43;4.00;;;3.03;;
16813;SDS011;8524;57.650;11.926;2023-05-10T09:30:15;3.27;;;2.93;;
16813;SDS011;8524;57.650;11.926;2023-05-10T09:32:43;3.87;;;2.83;;
16813;SDS011;8524;57.650;11.926;2023-05-10T09:35:12;3.23;;;2.80;;
16813;SDS011;8524;57.650;11.926;2023-05-10T09:37:40;9.40;;;3.27;;
16813;SDS011;8524;57.650;11.926;2023-05-10T09:40:10;3.10;;;2.80;;
16813;SDS011;8524;57.650;11.926;2023-05-10T09:42:39;6.13;;;3.00;;
16813;SDS011;8524;57.650;11.926;2023-05-10T09:45:09;5.50;;;3.13;;
16813;SDS011;8524;57.650;11.926;2023-05-10T09:47:36;3.23;;;2.80;;
16813;SDS011;8524;57.650;11.926;2023-05-10T09:50:04;7.20;;;2.93;;
16813;SDS011;8524;57.650;11.926;2023-05-10T09:52:36;3.20;;;2.87;;
16813;SDS011;8524;57.650;11.926;2023-05-10T09:55:13;3.70;;;2.90;;
16813;SDS011;8524;57.650;11.926;2023-05-10T09:57:41;6.13;;;3.30;;
16813;SDS011;8524;57.650;11.926;2023-05-10T10:00:09;4.83;;;3.17;;
16813;SDS011;8524;57.650;11.926;2023-05-10T10:02:37;4.33;;;3.17;;
16813;SDS011;8524;57.650;11.926;2023-05-10T10:05:06;5.30;;;3.30;;
16813;SDS011;8524;57.650;11.926;2023-05-10T10:07:34;3.83;;;3.20;;
16813;SDS011;8524;57.650;11.926;2023-05-10T10:10:01;4.17;;;3.07;;
16813;SDS011;8524;57.650;11.926;2023-05-10T10:12:30;6.20;;;3.20;;
16813;SDS011;8524;57.650;11.926;2023-05-10T10:14:59;9.63;;;3.13;;
16813;SDS011;8524;57.650;11.926;2023-05-10T10:17:26;3.23;;;2.93;;
16813;SDS011;8524;57.650;11.926;2023-05-10T10:19:54;4.00;;;3.00;;
16813;SDS011;8524;57.650;11.926;2023-05-10T10:22:23;3.80;;;3.37;;
16813;SDS011;8524;57.650;11.926;2023-05-10T10:24:50;7.20;;;3.43;;
16813;SDS011;8524;57.650;11.926;2023-05-10T10:27:20;5.73;;;3.10;;
16813;SDS011;8524;57.650;11.926;2023-05-10T10:30:00;4.30;;;2.60;;
16813;SDS011;8524;57.650;11.926;2023-05-10T10:32:35;4.07;;;3.17;;
16813;SDS011;8524;57.650;11.926;2023-05-10T10:35:21;5.63;;;3.10;;
16813;SDS011;8524;57.650;11.926;2023-05-10T10:37:49;4.00;;;3.30;;
16813;SDS011;8524;57.650;11.926;2023-05-10T10:40:24;3.50;;;3.00;;
16813;SDS011;8524;57.650;11.926;2023-05-10T10:42:52;3.63;;;3.10;;
16813;SDS011;8524;57.650;11.926;2023-05-10T10:45:21;6.23;;;3.30;;
16813;SDS011;8524;57.650;11.926;2023-05-10T10:47:53;6.10;;;3.10;;
16813;SDS011;8524;57.650;11.926;2023-05-10T10:50:47;3.70;;;2.80;;
16813;SDS011;8524;57.650;11.926;2023-05-10T10:53:22;5.27;;;2.90;;
16813;SDS011;8524;57.650;11.926;2023-05-10T10:55:49;4.80;;;2.80;;
16813;SDS011;8524;57.650;11.926;2023-05-10T10:58:28;4.67;;;3.10;;
16813;SDS011;8524;57.650;11.926;2023-05-10T11:01:10;4.30;;;3.00;;
16813;SDS011;8524;57.650;11.926;2023-05-10T11:03:38;3.40;;;2.70;;
16813;SDS011;8524;57.650;11.926;2023-05-10T11:06:05;3.00;;;2.70;;
16813;SDS011;8524;57.650;11.926;2023-05-10T11:08:34;4.50;;;2.70;;
16813;SDS011;8524;57.650;11.926;2023-05-10T11:11:09;3.33;;;2.70;;
16813;SDS011;8524;57.650;11.926;2023-05-10T11:13:39;5.27;;;3.10;;
16813;SDS011;8524;57.650;11.926;2023-05-10T11:16:18;3.60;;;2.87;;
16813;SDS011;8524;57.650;11.926;2023-05-10T11:18:52;3.67;;;2.87;;
16813;SDS011;8524;57.650;11.926;2023-05-10T11:21:21;4.47;;;3.20;;
16813;SDS011;8524;57.650;11.926;2023-05-10T11:23:49;4.33;;;2.67;;
16813;SDS011;8524;57.650;11.926;2023-05-10T11:26:18;3.23;;;2.70;;
16813;SDS011;8524;57.650;11.926;2023-05-10T11:28:48;4.43;;;2.50;;
16813;SDS011;8524;57.650;11.926;2023-05-10T11:31:18;3.67;;;2.67;;
16813;SDS011;8524;57.650;11.926;2023-05-10T11:33:46;2.97;;;2.67;;
16813;SDS011;8524;57.650;11.926;2023-05-10T11:36:14;4.70;;;3.07;;
16813;SDS011;8524;57.650;11.926;2023-05-10T11:38:42;5.83;;;3.10;;
16813;SDS011;8524;57.650;11.926;2023-05-10T11:41:09;4.30;;;3.20;;
16813;SDS011;8524;57.650;11.926;2023-05-10T11:43:38;3.47;;;2.73;;
16813;SDS011;8524;57.650;11.926;2023-05-10T11:46:06;3.77;;;2.50;;
16813;SDS011;8524;57.650;11.926;2023-05-10T11:48:35;3.47;;;2.50;;
16813;SDS011;8524;57.650;11.926;2023-05-10T11:51:03;3.87;;;2.90;;
16813;SDS011;8524;57.650;11.926;2023-05-10T11:53:31;2.73;;;2.53;;
16813;SDS011;8524;57.650;11.926;2023-05-10T11:56:03;3.97;;;2.40;;
16813;SDS011;8524;57.650;11.926;2023-05-10T11:58:30;3.53;;;2.40;;
16813;SDS011;8524;57.650;11.926;2023-05-10T12:00:58;2.40;;;2.20;;
16813;SDS011;8524;57.650;11.926;2023-05-10T12:03:25;3.10;;;2.37;;
16813;SDS011;8524;57.650;11.926;2023-05-10T12:05:54;4.05;;;2.80;;
16813;SDS011;8524;57.650;11.926;2023-05-10T12:08:23;5.17;;;2.53;;
16813;SDS011;8524;57.650;11.926;2023-05-10T12:10:51;4.10;;;2.43;;
16813;SDS011;8524;57.650;11.926;2023-05-10T12:13:20;2.73;;;2.40;;
16813;SDS011;8524;57.650;11.926;2023-05-10T12:15:47;2.87;;;2.67;;
16813;SDS011;8524;57.650;11.926;2023-05-10T12:18:14;4.07;;;2.40;;
16813;SDS011;8524;57.650;11.926;2023-05-10T12:20:48;3.43;;;2.50;;
16813;SDS011;8524;57.650;11.926;2023-05-10T12:23:20;3.83;;;2.40;;
16813;SDS011;8524;57.650;11.926;2023-05-10T12:25:47;2.30;;;2.10;;
16813;SDS011;8524;57.650;11.926;2023-05-10T12:28:14;3.70;;;2.43;;
16813;SDS011;8524;57.650;11.926;2023-05-10T12:30:41;4.17;;;2.10;;
16813;SDS011;8524;57.650;11.926;2023-05-10T12:33:09;4.30;;;2.33;;
16813;SDS011;8524;57.650;11.926;2023-05-10T12:35:43;3.47;;;2.13;;
16813;SDS011;8524;57.650;11.926;2023-05-10T12:38:26;3.30;;;2.50;;
16813;SDS011;8524;57.650;11.926;2023-05-10T12:40:56;2.63;;;2.20;;
16813;SDS011;8524;57.650;11.926;2023-05-10T12:43:23;2.73;;;2.20;;
16813;SDS011;8524;57.650;11.926;2023-05-10T12:46:03;2.60;;;2.20;;
16813;SDS011;8524;57.650;11.926;2023-05-10T12:48:35;3.80;;;2.33;;
16813;SDS011;8524;57.650;11.926;2023-05-10T12:51:15;3.73;;;1.97;;
16813;SDS011;8524;57.650;11.926;2023-05-10T12:53:47;3.30;;;2.43;;
16813;SDS011;8524;57.650;11.926;2023-05-10T12:56:21;7.07;;;3.20;;
16813;SDS011;8524;57.650;11.926;2023-05-10T12:58:48;4.63;;;3.03;;
16813;SDS011;8524;57.650;11.926;2023-05-10T13:01:17;5.87;;;3.13;;
16813;SDS011;8524;57.650;11.926;2023-05-10T13:03:44;5.00;;;3.00;;
16813;SDS011;8524;57.650;11.926;2023-05-10T13:06:11;4.83;;;2.80;;
16813;SDS011;8524;57.650;11.926;2023-05-10T13:08:39;3.57;;;2.70;;
16813;SDS011;8524;57.650;11.926;2023-05-10T13:11:06;5.13;;;2.90;;
16813;SDS011;8524;57.650;11.926;2023-05-10T13:13:34;7.33;;;3.20;;
16813;SDS011;8524;57.650;11.926;2023-05-10T13:16:01;7.57;;;3.47;;
16813;SDS011;8524;57.650;11.926;2023-05-10T13:18:30;6.30;;;3.33;;
16813;SDS011;8524;57.650;11.926;2023-05-10T13:20:57;4.60;;;2.90;;
16813;SDS011;8524;57.650;11.926;2023-05-10T13:23:24;5.27;;;2.90;;
16813;SDS011;8524;57.650;11.926;2023-05-10T13:25:51;4.27;;;2.80;;
16813;SDS011;8524;57.650;11.926;2023-05-10T13:28:19;5.00;;;2.80;;
16813;SDS011;8524;57.650;11.926;2023-05-10T13:30:46;4.40;;;2.80;;
16813;SDS011;8524;57.650;11.926;2023-05-10T13:33:13;4.70;;;2.77;;
16813;SDS011;8524;57.650;11.926;2023-05-10T13:35:42;4.33;;;2.57;;
16813;SDS011;8524;57.650;11.926;2023-05-10T13:38:10;5.20;;;2.60;;
16813;SDS011;8524;57.650;11.926;2023-05-10T13:40:38;3.63;;;2.70;;
16813;SDS011;8524;57.650;11.926;2023-05-10T13:43:05;4.80;;;2.60;;
16813;SDS011;8524;57.650;11.926;2023-05-10T13:45:32;3.70;;;3.10;;
16813;SDS011;8524;57.650;11.926;2023-05-10T13:48:00;4.70;;;2.53;;
16813;SDS011;8524;57.650;11.926;2023-05-10T13:50:27;2.30;;;2.10;;
16813;SDS011;8524;57.650;11.926;2023-05-10T13:52:55;3.83;;;2.10;;
16813;SDS011;8524;57.650;11.926;2023-05-10T13:55:22;2.93;;;2.20;;
16813;SDS011;8524;57.650;11.926;2023-05-10T13:57:49;4.90;;;2.10;;
16813;SDS011;8524;57.650;11.926;2023-05-10T14:00:17;2.50;;;2.23;;
16813;SDS011;8524;57.650;11.926;2023-05-10T14:02:44;3.20;;;2.20;;
16813;SDS011;8524;57.650;11.926;2023-05-10T14:05:11;3.77;;;2.30;;
16813;SDS011;8524;57.650;11.926;2023-05-10T14:07:41;2.30;;;2.10;;
16813;SDS011;8524;57.650;11.926;2023-05-10T14:10:18;3.57;;;2.30;;
16813;SDS011;8524;57.650;11.926;2023-05-10T14:12:45;4.20;;;2.23;;
16813;SDS011;8524;57.650;11.926;2023-05-10T14:15:12;5.17;;;2.43;;
16813;SDS011;8524;57.650;11.926;2023-05-10T14:17:39;3.03;;;2.17;;
16813;SDS011;8524;57.650;11.926;2023-05-10T14:20:06;2.67;;;2.40;;
16813;SDS011;8524;57.650;11.926;2023-05-10T14:22:34;3.27;;;2.40;;
16813;SDS011;8524;57.650;11.926;2023-05-10T14:25:01;3.50;;;2.13;;
16813;SDS011;8524;57.650;11.926;2023-05-10T14:27:29;3.20;;;1.90;;
16813;SDS011;8524;57.650;11.926;2023-05-10T14:29:57;3.87;;;2.60;;
16813;SDS011;8524;57.650;11.926;2023-05-10T14:32:24;2.70;;;2.40;;
16813;SDS011;8524;57.650;11.926;2023-05-10T14:34:52;4.70;;;2.90;;
16813;SDS011;8524;57.650;11.926;2023-05-10T14:37:20;3.23;;;2.47;;
16813;SDS011;8524;57.650;11.926;2023-05-10T14:39:47;3.00;;;2.53;;
16813;SDS011;8524;57.650;11.926;2023-05-10T14:42:14;5.75;;;2.95;;
16813;SDS011;8524;57.650;11.926;2023-05-10T14:44:43;4.43;;;2.60;;
16813;SDS011;8524;57.650;11.926;2023-05-10T14:47:10;6.90;;;3.20;;
16813;SDS011;8524;57.650;11.926;2023-05-10T14:49:37;5.83;;;3.00;;
16813;SDS011;8524;57.650;11.926;2023-05-10T14:52:04;4.27;;;2.60;;
16813;SDS011;8524;57.650;11.926;2023-05-10T14:54:31;4.83;;;3.00;;
16813;SDS011;8524;57.650;11.926;2023-05-10T14:56:58;3.70;;;2.90;;
16813;SDS011;8524;57.650;11.926;2023-05-10T14:59:25;6.07;;;2.80;;
16813;SDS011;8524;57.650;11.926;2023-05-10T15:01:54;4.68;;;3.00;;
16813;SDS011;8524;57.650;11.926;2023-05-10T15:04:20;4.93;;;2.80;;